Time;durP1;ratioP1;P1;durP2;ratioP2;P2;SDS_P1;SDS_P2;PMS_P1;PMS_P2;Temp;Humidity;BMP_temperature;BMP_pressure;BME280_temperature;BME280_humidity;BME280_pressure;Samples;Min_cycle;Max_cycle;Signal;HPM_P1;HPM_P2
2023/05/25 00:00:10;;;;;;;26.97;18.97;;;;;;;;;;745572;184;917215;-60
2023/05/25 00:02:36;;;;;;;28.20;17.27;;;;;;;;;;741624;187;922056;-62
2023/05/25 00:05:02;;;;;;;25.13;17.03;;;;;;;;;;741080;188;918611;-59
2023/05/25 00:07:27;;;;;;;27.50;15.83;;;;;;;;;;739957;187;917150;-61
2023/05/25 00:09:53;;;;;;;28.97;16.10;;;;;;;;;;742040;187;915847;-60
2023/05/25 00:12:19;;;;;;;28.30;18.03;;;;;;;;;;742262;187;918254;-60
2023/05/25 00:14:45;;;;;;;26.55;17.77;;;;;;;;;;739579;187;816504;-62
2023/05/25 00:17:11;;;;;;;23.60;17.13;;;;;;;;;;745387;187;919571;-62
2023/05/25 00:19:41;;;;;;;29.53;17.33;;;;;;;;;;737746;188;919761;-59
2023/05/25 00:22:03;;;;;;;28.20;16.97;;;;;;;;;;744112;187;919891;-61
2023/05/25 00:24:29;;;;;;;27.20;16.40;;;;;;;;;;736237;187;847135;-62
2023/05/25 00:26:54;;;;;;;25.27;16.70;;;;;;;;;;738453;187;817360;-59
2023/05/25 00:29:20;;;;;;;23.00;16.03;;;;;;;;;;742037;188;966120;-59
2023/05/25 00:31:46;;;;;;;25.67;17.90;;;;;;;;;;737724;187;948618;-63
2023/05/25 00:34:12;;;;;;;29.87;18.43;;;;;;;;;;731653;189;919019;-60
2023/05/25 00:36:38;;;;;;;31.67;19.30;;;;;;;;;;734635;191;919526;-59
2023/05/25 00:39:04;;;;;;;28.50;18.27;;;;;;;;;;720807;189;919502;-61
2023/05/25 00:41:30;;;;;;;27.50;17.70;;;;;;;;;;744017;187;915294;-59
2023/05/25 00:43:55;;;;;;;39.30;21.20;;;;;;;;;;732623;187;1021981;-62
2023/05/25 00:46:21;;;;;;;33.33;18.70;;;;;;;;;;738780;188;919174;-61
2023/05/25 00:48:47;;;;;;;32.77;20.77;;;;;;;;;;734743;187;919496;-62
2023/05/25 00:51:13;;;;;;;30.63;18.93;;;;;;;;;;733198;187;919596;-58
2023/05/25 00:53:39;;;;;;;29.50;18.90;;;;;;;;;;738573;187;860751;-61
2023/05/25 00:56:05;;;;;;;35.90;20.03;;;;;;;;;;741408;186;916968;-62
2023/05/25 00:58:30;;;;;;;32.47;19.73;;;;;;;;;;740292;186;920214;-59
2023/05/25 01:00:56;;;;;;;30.13;20.80;;;;;;;;;;746825;187;919942;-62
2023/05/25 01:03:26;;;;;;;31.50;19.47;;;;;;;;;;740318;187;918837;-60
2023/05/25 01:05:48;;;;;;;27.77;20.03;;;;;;;;;;740054;187;920850;-62
2023/05/25 01:08:14;;;;;;;29.80;18.42;;;;;;;;;;736045;187;920418;-59
2023/05/25 01:10:40;;;;;;;37.03;19.63;;;;;;;;;;743306;183;919579;-61
2023/05/25 01:13:06;;;;;;;33.23;20.60;;;;;;;;;;755403;183;822119;-59
2023/05/25 01:15:31;;;;;;;22.70;16.37;;;;;;;;;;752065;183;817228;-61
2023/05/25 01:17:58;;;;;;;27.43;17.50;;;;;;;;;;752673;184;918998;-62
2023/05/25 01:20:23;;;;;;;36.47;20.27;;;;;;;;;;741781;187;919989;-62
2023/05/25 01:22:50;;;;;;;31.17;18.80;;;;;;;;;;740658;187;919323;-62
2023/05/25 01:25:20;;;;;;;29.03;20.67;;;;;;;;;;744729;187;919292;-61
2023/05/25 01:27:44;;;;;;;29.03;16.60;;;;;;;;;;741263;187;846111;-59
2023/05/25 01:30:09;;;;;;;26.53;17.87;;;;;;;;;;739552;188;920077;-59
2023/05/25 01:32:36;;;;;;;35.80;19.30;;;;;;;;;;737617;187;919074;-59
2023/05/25 01:35:01;;;;;;;27.97;18.60;;;;;;;;;;745146;187;918635;-59
2023/05/25 01:37:27;;;;;;;28.73;18.10;;;;;;;;;;741734;187;851871;-59
2023/05/25 01:39:53;;;;;;;28.40;18.43;;;;;;;;;;738111;187;918911;-63
2023/05/25 01:42:18;;;;;;;28.10;19.10;;;;;;;;;;746246;187;901690;-61
2023/05/25 01:44:44;;;;;;;26.90;17.70;;;;;;;;;;739882;187;918541;-60
2023/05/25 01:47:25;;;;;;;31.52;20.20;;;;;;;;;;736089;187;938746;-62
2023/05/25 01:49:51;;;;;;;26.90;19.07;;;;;;;;;;735909;187;918797;-63
2023/05/25 01:52:18;;;;;;;32.60;18.80;;;;;;;;;;744447;187;818914;-60
2023/05/25 01:54:44;;;;;;;29.17;18.70;;;;;;;;;;728971;190;916452;-62
2023/05/25 01:57:11;;;;;;;29.10;19.73;;;;;;;;;;737008;188;919518;-60
2023/05/25 01:59:36;;;;;;;31.20;18.73;;;;;;;;;;734270;188;919292;-62
2023/05/25 02:02:02;;;;;;;31.60;19.23;;;;;;;;;;741754;185;920255;-59
2023/05/25 02:04:28;;;;;;;26.97;18.57;;;;;;;;;;735628;188;921372;-60
2023/05/25 02:06:53;;;;;;;29.60;17.30;;;;;;;;;;749468;182;919360;-62
2023/05/25 02:09:20;;;;;;;29.33;19.20;;;;;;;;;;757339;183;915905;-63
2023/05/25 02:11:45;;;;;;;30.57;17.47;;;;;;;;;;746916;183;918631;-62
2023/05/25 02:14:11;;;;;;;38.67;19.40;;;;;;;;;;744529;186;918754;-61
2023/05/25 02:16:37;;;;;;;27.80;19.13;;;;;;;;;;746726;187;816804;-63
2023/05/25 02:19:03;;;;;;;26.50;17.80;;;;;;;;;;732726;190;915750;-60
2023/05/25 02:21:29;;;;;;;21.40;15.17;;;;;;;;;;731196;189;942172;-60
2023/05/25 02:23:56;;;;;;;29.98;18.62;;;;;;;;;;734026;190;919511;-60
2023/05/25 02:26:21;;;;;;;33.23;19.07;;;;;;;;;;731990;188;918611;-63
2023/05/25 02:28:46;;;;;;;34.33;17.40;;;;;;;;;;742602;186;819776;-60
2023/05/25 02:31:12;;;;;;;27.27;17.90;;;;;;;;;;739194;188;919941;-60
2023/05/25 02:33:38;;;;;;;30.40;16.80;;;;;;;;;;748184;187;919976;-62
2023/05/25 02:36:04;;;;;;;28.20;16.57;;;;;;;;;;741595;187;919190;-60
2023/05/25 02:38:30;;;;;;;28.35;16.87;;;;;;;;;;739373;187;917976;-61
2023/05/25 02:40:56;;;;;;;27.23;17.60;;;;;;;;;;743575;187;916846;-63
2023/05/25 02:43:22;;;;;;;24.53;16.17;;;;;;;;;;736265;187;919397;-60
2023/05/25 02:45:48;;;;;;;30.03;16.73;;;;;;;;;;739322;187;920440;-63
2023/05/25 02:48:13;;;;;;;29.70;17.47;;;;;;;;;;748017;187;922282;-60
2023/05/25 02:50:39;;;;;;;24.25;14.65;;;;;;;;;;739069;187;920204;-60
2023/05/25 02:53:05;;;;;;;20.97;15.10;;;;;;;;;;737742;187;817439;-62
2023/05/25 02:55:32;;;;;;;25.27;17.00;;;;;;;;;;740478;187;919277;-60
2023/05/25 02:57:58;;;;;;;25.13;15.83;;;;;;;;;;746670;188;863703;-62
2023/05/25 03:00:23;;;;;;;31.10;15.83;;;;;;;;;;739533;188;915840;-61
2023/05/25 03:02:49;;;;;;;25.50;14.83;;;;;;;;;;741950;187;916083;-63
2023/05/25 03:05:15;;;;;;;24.70;16.50;;;;;;;;;;740315;188;1739736;-60
2023/05/25 03:07:41;;;;;;;27.90;15.80;;;;;;;;;;735971;188;919079;-60
2023/05/25 03:10:06;;;;;;;21.57;14.57;;;;;;;;;;738947;187;918646;-60
2023/05/25 03:12:32;;;;;;;22.90;15.50;;;;;;;;;;746482;186;918829;-60
2023/05/25 03:14:58;;;;;;;22.03;15.10;;;;;;;;;;737674;187;932950;-60
2023/05/25 03:17:24;;;;;;;29.70;14.20;;;;;;;;;;741550;187;917156;-59
2023/05/25 03:19:50;;;;;;;35.07;18.73;;;;;;;;;;743614;186;921595;-61
2023/05/25 03:22:16;;;;;;;34.57;20.60;;;;;;;;;;749253;186;920079;-61
2023/05/25 03:24:41;;;;;;;24.87;17.43;;;;;;;;;;744803;186;822466;-60
2023/05/25 03:27:07;;;;;;;31.90;23.13;;;;;;;;;;744169;187;920912;-62
2023/05/25 03:29:33;;;;;;;29.87;18.97;;;;;;;;;;744742;188;872089;-60
2023/05/25 03:31:59;;;;;;;23.73;17.10;;;;;;;;;;740489;187;817126;-60
2023/05/25 03:34:25;;;;;;;27.23;19.67;;;;;;;;;;741483;186;809989;-60
2023/05/25 03:36:53;;;;;;;27.00;14.70;;;;;;;;;;746909;187;917906;-61
2023/05/25 03:39:17;;;;;;;22.10;15.93;;;;;;;;;;743762;187;818947;-59
2023/05/25 03:41:43;;;;;;;22.33;13.70;;;;;;;;;;737464;187;920013;-61
2023/05/25 03:44:09;;;;;;;17.60;13.93;;;;;;;;;;741709;188;921066;-62
2023/05/25 03:46:35;;;;;;;24.77;15.53;;;;;;;;;;737536;185;891637;-62
2023/05/25 03:49:00;;;;;;;22.73;16.63;;;;;;;;;;743325;187;919870;-61
2023/05/25 03:51:28;;;;;;;22.50;13.87;;;;;;;;;;743218;187;918331;-60
2023/05/25 03:53:52;;;;;;;20.07;13.10;;;;;;;;;;740729;187;868687;-60
2023/05/25 03:56:18;;;;;;;22.40;13.03;;;;;;;;;;740790;187;918483;-60
2023/05/25 03:58:44;;;;;;;19.90;12.30;;;;;;;;;;738098;188;919432;-60
2023/05/25 04:01:11;;;;;;;19.60;15.23;;;;;;;;;;745825;188;918863;-61
2023/05/25 04:03:35;;;;;;;17.58;12.70;;;;;;;;;;740985;187;919311;-60
2023/05/25 04:06:01;;;;;;;20.10;13.40;;;;;;;;;;740685;187;912234;-60
2023/05/25 04:08:27;;;;;;;19.80;13.60;;;;;;;;;;743321;188;915424;-61
2023/05/25 04:10:53;;;;;;;18.23;14.47;;;;;;;;;;741726;187;918668;-62
2023/05/25 04:13:19;;;;;;;20.77;14.37;;;;;;;;;;738804;187;920947;-60
2023/05/25 04:15:45;;;;;;;21.53;13.23;;;;;;;;;;736602;187;816675;-63
2023/05/25 04:18:11;;;;;;;20.30;10.80;;;;;;;;;;741874;187;716707;-60
2023/05/25 04:20:36;;;;;;;17.90;11.37;;;;;;;;;;733300;187;917970;-60
2023/05/25 04:23:02;;;;;;;19.93;14.47;;;;;;;;;;735250;190;923090;-60
2023/05/25 04:25:28;;;;;;;20.13;11.30;;;;;;;;;;741871;187;818503;-60
2023/05/25 04:27:55;;;;;;;25.23;12.90;;;;;;;;;;730535;189;923128;-60
2023/05/25 04:30:20;;;;;;;18.27;12.60;;;;;;;;;;742121;185;923497;-64
2023/05/25 04:32:46;;;;;;;18.73;12.30;;;;;;;;;;747654;186;818313;-60
2023/05/25 04:35:13;;;;;;;18.50;11.38;;;;;;;;;;741737;187;922471;-60
2023/05/25 04:37:39;;;;;;;20.13;11.40;;;;;;;;;;746158;187;863586;-61
2023/05/25 04:40:09;;;;;;;19.37;13.30;;;;;;;;;;736315;187;918088;-60
2023/05/25 04:42:32;;;;;;;19.43;14.50;;;;;;;;;;739115;190;818648;-62
2023/05/25 04:44:58;;;;;;;17.30;12.60;;;;;;;;;;739044;187;916017;-62
2023/05/25 04:47:24;;;;;;;20.50;12.90;;;;;;;;;;740453;187;918066;-60
2023/05/25 04:49:50;;;;;;;16.93;12.73;;;;;;;;;;744664;187;916644;-62
2023/05/25 04:52:15;;;;;;;23.17;14.37;;;;;;;;;;739488;187;919328;-60
2023/05/25 04:54:42;;;;;;;28.37;12.73;;;;;;;;;;742698;187;918968;-62
2023/05/25 04:57:07;;;;;;;20.40;11.40;;;;;;;;;;753564;186;918664;-59
2023/05/25 04:59:33;;;;;;;16.77;11.70;;;;;;;;;;740970;187;621534;-60
2023/05/25 05:01:59;;;;;;;18.93;12.20;;;;;;;;;;734430;187;895752;-63
2023/05/25 05:04:25;;;;;;;20.70;12.30;;;;;;;;;;735205;186;920005;-60
2023/05/25 05:06:51;;;;;;;21.10;15.10;;;;;;;;;;743906;187;915460;-60
2023/05/25 05:09:17;;;;;;;17.30;12.00;;;;;;;;;;735459;188;920881;-59
2023/05/25 05:11:42;;;;;;;17.50;13.05;;;;;;;;;;740361;187;922337;-63
2023/05/25 05:14:08;;;;;;;21.43;13.60;;;;;;;;;;744772;187;918503;-61
2023/05/25 05:16:34;;;;;;;18.10;10.80;;;;;;;;;;746031;187;884366;-60
2023/05/25 05:19:00;;;;;;;17.77;10.77;;;;;;;;;;738327;187;922814;-62
2023/05/25 05:21:26;;;;;;;14.80;8.60;;;;;;;;;;744414;188;816013;-62
2023/05/25 05:23:51;;;;;;;15.70;11.00;;;;;;;;;;738452;188;919033;-61
2023/05/25 05:26:17;;;;;;;15.73;10.77;;;;;;;;;;737186;188;917926;-62
2023/05/25 05:28:43;;;;;;;21.48;9.98;;;;;;;;;;739237;188;919430;-61
2023/05/25 05:31:10;;;;;;;24.03;9.77;;;;;;;;;;745855;185;909909;-62
2023/05/25 05:33:35;;;;;;;9.70;7.10;;;;;;;;;;738361;187;920194;-60
2023/05/25 05:36:02;;;;;;;11.98;7.82;;;;;;;;;;738604;188;918826;-62
2023/05/25 05:38:27;;;;;;;12.57;7.37;;;;;;;;;;747426;187;919982;-60
2023/05/25 05:40:52;;;;;;;13.60;8.87;;;;;;;;;;742669;187;917164;-62
2023/05/25 05:43:18;;;;;;;14.63;11.10;;;;;;;;;;743916;186;919095;-60
2023/05/25 05:45:44;;;;;;;14.67;8.70;;;;;;;;;;747378;186;919261;-62
2023/05/25 05:48:10;;;;;;;18.80;9.63;;;;;;;;;;741340;187;918645;-60
2023/05/25 05:50:36;;;;;;;17.93;10.33;;;;;;;;;;737400;187;909647;-63
2023/05/25 05:53:02;;;;;;;14.60;9.30;;;;;;;;;;744771;187;815712;-63
2023/05/25 05:55:27;;;;;;;17.77;10.10;;;;;;;;;;739985;187;919294;-62
2023/05/25 05:57:53;;;;;;;16.00;10.10;;;;;;;;;;738920;187;922423;-60
2023/05/25 06:00:20;;;;;;;17.33;10.07;;;;;;;;;;737799;187;918200;-63
2023/05/25 06:02:45;;;;;;;13.80;8.00;;;;;;;;;;745954;188;921338;-60
2023/05/25 06:05:11;;;;;;;13.13;8.40;;;;;;;;;;736288;187;937439;-63
2023/05/25 06:07:37;;;;;;;14.83;8.60;;;;;;;;;;734625;187;919354;-60
2023/05/25 06:10:03;;;;;;;16.10;7.57;;;;;;;;;;739626;187;909684;-60
2023/05/25 06:12:29;;;;;;;14.60;8.27;;;;;;;;;;742757;187;918421;-60
2023/05/25 06:14:55;;;;;;;17.23;9.07;;;;;;;;;;736629;187;914142;-61
2023/05/25 06:17:21;;;;;;;14.30;9.60;;;;;;;;;;745636;187;918943;-60
2023/05/25 06:19:47;;;;;;;14.10;9.07;;;;;;;;;;738868;187;919185;-60
2023/05/25 06:22:12;;;;;;;20.67;9.03;;;;;;;;;;739731;187;817187;-60
2023/05/25 06:24:38;;;;;;;17.60;9.10;;;;;;;;;;741564;187;917453;-65
2023/05/25 06:27:04;;;;;;;15.00;8.20;;;;;;;;;;756032;186;919982;-60
2023/05/25 06:29:30;;;;;;;15.70;8.90;;;;;;;;;;740905;186;919042;-63
2023/05/25 06:31:56;;;;;;;14.40;5.90;;;;;;;;;;738193;188;920527;-61
2023/05/25 06:34:22;;;;;;;17.97;7.50;;;;;;;;;;745253;188;912874;-60
2023/05/25 06:36:48;;;;;;;12.87;4.90;;;;;;;;;;739658;188;916814;-60
2023/05/25 06:39:14;;;;;;;16.93;7.47;;;;;;;;;;739012;188;918172;-63
2023/05/25 06:41:40;;;;;;;9.90;6.73;;;;;;;;;;748195;187;910617;-64
2023/05/25 06:44:06;;;;;;;15.23;7.33;;;;;;;;;;743941;187;920446;-60
2023/05/25 06:46:31;;;;;;;13.80;8.07;;;;;;;;;;737784;188;919758;-63
2023/05/25 06:48:59;;;;;;;9.27;5.70;;;;;;;;;;740249;187;810697;-63
2023/05/25 06:51:26;;;;;;;13.47;7.10;;;;;;;;;;730887;190;919778;-60
2023/05/25 06:53:51;;;;;;;11.40;6.80;;;;;;;;;;740346;187;916685;-60
2023/05/25 06:56:17;;;;;;;18.03;7.43;;;;;;;;;;736924;188;919198;-64
2023/05/25 06:58:42;;;;;;;14.07;7.20;;;;;;;;;;738882;187;919592;-63
2023/05/25 07:01:08;;;;;;;10.53;5.40;;;;;;;;;;737976;187;817656;-64
2023/05/25 07:03:35;;;;;;;10.15;6.47;;;;;;;;;;735993;187;920763;-63
2023/05/25 07:06:00;;;;;;;11.03;6.67;;;;;;;;;;746795;187;918553;-61
2023/05/25 07:08:26;;;;;;;13.50;8.17;;;;;;;;;;751470;184;918439;-60
2023/05/25 07:10:52;;;;;;;15.97;5.63;;;;;;;;;;755091;183;905197;-64
2023/05/25 07:13:17;;;;;;;14.03;6.60;;;;;;;;;;754846;183;919974;-64
2023/05/25 07:15:43;;;;;;;11.07;5.70;;;;;;;;;;746955;185;919256;-65
2023/05/25 07:18:11;;;;;;;14.00;6.83;;;;;;;;;;740196;187;918506;-65
2023/05/25 07:20:38;;;;;;;13.63;7.40;;;;;;;;;;737027;187;919014;-64
2023/05/25 07:23:01;;;;;;;9.63;5.67;;;;;;;;;;744695;187;918898;-61
2023/05/25 07:25:27;;;;;;;15.70;6.60;;;;;;;;;;738407;188;917136;-64
2023/05/25 07:27:54;;;;;;;18.07;8.20;;;;;;;;;;737346;188;919404;-64
2023/05/25 07:30:18;;;;;;;12.83;6.80;;;;;;;;;;741013;187;920993;-64
2023/05/25 07:32:45;;;;;;;16.00;5.30;;;;;;;;;;738481;187;922198;-65
2023/05/25 07:35:10;;;;;;;13.50;7.37;;;;;;;;;;736517;187;1006099;-60
2023/05/25 07:37:36;;;;;;;12.53;6.30;;;;;;;;;;744527;188;919618;-64
2023/05/25 07:40:02;;;;;;;12.23;5.77;;;;;;;;;;736807;188;921130;-62
2023/05/25 07:42:32;;;;;;;14.07;5.30;;;;;;;;;;739166;188;919310;-66
2023/05/25 07:44:53;;;;;;;15.20;7.07;;;;;;;;;;740179;187;916351;-61
2023/05/25 07:47:19;;;;;;;14.40;6.80;;;;;;;;;;749890;187;920646;-60
2023/05/25 07:49:45;;;;;;;14.33;6.90;;;;;;;;;;742579;187;919178;-61
2023/05/25 07:52:11;;;;;;;6.93;5.93;;;;;;;;;;741223;187;920212;-64
2023/05/25 07:54:38;;;;;;;11.50;6.90;;;;;;;;;;744293;187;918691;-63
2023/05/25 07:57:03;;;;;;;13.27;7.17;;;;;;;;;;739658;186;917886;-60
2023/05/25 07:59:29;;;;;;;16.10;6.53;;;;;;;;;;739303;187;922351;-60
2023/05/25 08:01:54;;;;;;;11.90;8.47;;;;;;;;;;744869;187;919324;-65
2023/05/25 08:04:20;;;;;;;13.03;7.30;;;;;;;;;;739907;187;946299;-64
2023/05/25 08:06:46;;;;;;;12.90;7.70;;;;;;;;;;741889;186;919989;-64
2023/05/25 08:09:13;;;;;;;9.60;5.57;;;;;;;;;;740396;186;927635;-65
2023/05/25 08:11:38;;;;;;;13.23;8.93;;;;;;;;;;743883;186;917404;-59
2023/05/25 08:14:04;;;;;;;18.30;7.77;;;;;;;;;;739365;187;919113;-60
2023/05/25 08:16:29;;;;;;;16.90;7.37;;;;;;;;;;744922;186;919196;-61
2023/05/25 08:18:55;;;;;;;9.97;7.30;;;;;;;;;;741348;187;917159;-60
2023/05/25 08:21:21;;;;;;;14.03;7.40;;;;;;;;;;730282;188;919166;-65
2023/05/25 08:23:49;;;;;;;11.07;5.17;;;;;;;;;;721288;192;845900;-60
2023/05/25 08:26:13;;;;;;;20.70;9.40;;;;;;;;;;745410;187;919561;-61
2023/05/25 08:28:39;;;;;;;10.57;6.17;;;;;;;;;;740890;187;920083;-60
2023/05/25 08:31:05;;;;;;;17.63;10.13;;;;;;;;;;738639;187;918140;-61
2023/05/25 08:33:30;;;;;;;11.63;8.50;;;;;;;;;;740184;187;918128;-61
2023/05/25 08:35:57;;;;;;;11.50;8.00;;;;;;;;;;734549;187;919140;-61
2023/05/25 08:38:24;;;;;;;13.17;9.10;;;;;;;;;;740526;186;917365;-61
2023/05/25 08:40:48;;;;;;;14.10;7.97;;;;;;;;;;740350;187;922318;-60
2023/05/25 08:43:14;;;;;;;13.73;8.47;;;;;;;;;;741610;187;914910;-65
2023/05/25 08:45:40;;;;;;;14.70;10.43;;;;;;;;;;739242;187;918809;-65
2023/05/25 08:48:06;;;;;;;15.37;8.30;;;;;;;;;;738837;188;918596;-65
2023/05/25 08:50:32;;;;;;;13.67;8.03;;;;;;;;;;742972;187;918071;-65
2023/05/25 08:52:57;;;;;;;17.93;8.47;;;;;;;;;;741749;187;912445;-65
2023/05/25 08:55:23;;;;;;;12.77;7.23;;;;;;;;;;735965;187;921376;-65
2023/05/25 08:57:51;;;;;;;14.43;9.63;;;;;;;;;;745025;187;818164;-61
2023/05/25 09:00:17;;;;;;;14.20;8.40;;;;;;;;;;738111;187;919363;-65
2023/05/25 09:03:01;;;;;;;13.67;9.00;;;;;;;;;;735232;187;919491;-60
2023/05/25 09:05:27;;;;;;;11.00;7.50;;;;;;;;;;730630;187;918746;-60
2023/05/25 09:07:53;;;;;;;15.17;9.33;;;;;;;;;;732935;189;918515;-60
2023/05/25 09:10:19;;;;;;;14.00;9.37;;;;;;;;;;739584;187;915505;-60
2023/05/25 09:12:45;;;;;;;16.00;9.63;;;;;;;;;;738501;187;817029;-60
2023/05/25 09:15:11;;;;;;;11.83;8.27;;;;;;;;;;736514;187;918489;-65
2023/05/25 09:17:37;;;;;;;17.50;9.57;;;;;;;;;;743246;186;916638;-64
2023/05/25 09:20:03;;;;;;;15.10;9.50;;;;;;;;;;743329;186;914100;-65
2023/05/25 09:22:28;;;;;;;16.00;9.38;;;;;;;;;;736848;188;919333;-64
2023/05/25 09:24:54;;;;;;;15.97;8.63;;;;;;;;;;738152;187;919676;-65
2023/05/25 09:27:20;;;;;;;16.50;9.57;;;;;;;;;;734395;187;919934;-65
2023/05/25 09:29:46;;;;;;;11.47;9.53;;;;;;;;;;735999;188;914250;-64
2023/05/25 09:32:12;;;;;;;15.30;9.20;;;;;;;;;;736211;187;921283;-65
2023/05/25 09:34:38;;;;;;;11.20;7.60;;;;;;;;;;733134;187;919484;-60
2023/05/25 09:37:04;;;;;;;9.00;7.00;;;;;;;;;;715588;194;919619;-64
2023/05/25 09:39:30;;;;;;;10.93;8.30;;;;;;;;;;713745;194;935627;-60
2023/05/25 09:41:56;;;;;;;7.90;4.90;;;;;;;;;;742295;187;816623;-60
2023/05/25 09:44:21;;;;;;;11.13;7.17;;;;;;;;;;737337;187;920079;-64
2023/05/25 09:46:47;;;;;;;10.52;6.93;;;;;;;;;;735805;187;1020357;-65
2023/05/25 09:49:13;;;;;;;12.53;6.10;;;;;;;;;;740923;187;915271;-60
2023/05/25 09:51:39;;;;;;;12.93;7.20;;;;;;;;;;737616;187;943683;-60
2023/05/25 09:54:05;;;;;;;12.15;7.00;;;;;;;;;;734128;187;910615;-60
2023/05/25 09:56:31;;;;;;;11.50;5.90;;;;;;;;;;734587;188;920555;-61
2023/05/25 09:58:56;;;;;;;10.57;6.60;;;;;;;;;;738854;187;863176;-61
2023/05/25 10:01:22;;;;;;;11.00;6.37;;;;;;;;;;742914;187;920477;-60
2023/05/25 10:03:49;;;;;;;4.70;4.20;;;;;;;;;;737223;187;936086;-66
2023/05/25 10:06:15;;;;;;;7.80;5.70;;;;;;;;;;741126;187;815483;-65
2023/05/25 10:08:40;;;;;;;9.67;6.17;;;;;;;;;;737504;188;921166;-65
2023/05/25 10:11:06;;;;;;;10.07;5.80;;;;;;;;;;739398;187;919912;-60
2023/05/25 10:13:32;;;;;;;15.50;6.30;;;;;;;;;;739673;187;911143;-60
2023/05/25 10:15:58;;;;;;;8.23;5.47;;;;;;;;;;741769;188;919869;-65
2023/05/25 10:18:24;;;;;;;10.10;6.50;;;;;;;;;;736821;187;980302;-64
2023/05/25 10:20:49;;;;;;;10.48;6.60;;;;;;;;;;742941;187;818075;-61
2023/05/25 10:23:16;;;;;;;10.50;6.77;;;;;;;;;;747508;184;916804;-64
2023/05/25 10:25:44;;;;;;;13.13;6.80;;;;;;;;;;741702;186;920251;-60
2023/05/25 10:28:14;;;;;;;11.50;6.18;;;;;;;;;;741842;186;922930;-65
2023/05/25 10:30:40;;;;;;;9.93;6.23;;;;;;;;;;745327;187;816112;-61
2023/05/25 10:33:05;;;;;;;9.53;5.37;;;;;;;;;;743144;187;918992;-65
2023/05/25 10:35:31;;;;;;;9.33;6.70;;;;;;;;;;741291;187;918829;-60
2023/05/25 10:37:57;;;;;;;10.90;7.53;;;;;;;;;;735554;187;853549;-64
2023/05/25 10:40:23;;;;;;;18.37;6.90;;;;;;;;;;738563;187;915828;-61
2023/05/25 10:42:49;;;;;;;8.60;6.10;;;;;;;;;;734224;189;919456;-65
2023/05/25 10:45:15;;;;;;;13.17;7.13;;;;;;;;;;714654;193;935399;-60
2023/05/25 10:47:41;;;;;;;8.57;5.53;;;;;;;;;;741175;188;927410;-60
2023/05/25 10:50:07;;;;;;;8.43;6.43;;;;;;;;;;732779;188;913203;-60
2023/05/25 10:52:33;;;;;;;8.13;7.00;;;;;;;;;;734506;187;926022;-65
2023/05/25 10:55:00;;;;;;;13.23;8.20;;;;;;;;;;745484;187;916950;-60
2023/05/25 10:57:25;;;;;;;13.70;7.80;;;;;;;;;;740521;187;919582;-64
2023/05/25 10:59:50;;;;;;;14.57;7.63;;;;;;;;;;742288;188;916806;-61
2023/05/25 11:02:16;;;;;;;15.97;8.40;;;;;;;;;;744468;188;916859;-60
2023/05/25 11:04:43;;;;;;;10.33;6.80;;;;;;;;;;738406;187;915829;-60
2023/05/25 11:07:13;;;;;;;12.77;7.80;;;;;;;;;;734487;188;919615;-60
2023/05/25 11:09:37;;;;;;;8.73;7.20;;;;;;;;;;739654;188;914167;-65
2023/05/25 11:12:01;;;;;;;11.80;7.33;;;;;;;;;;746093;187;885080;-65
2023/05/25 11:14:29;;;;;;;18.43;7.73;;;;;;;;;;739640;187;915451;-65
2023/05/25 11:17:01;;;;;;;15.17;9.17;;;;;;;;;;739460;187;918724;-60
2023/05/25 11:19:26;;;;;;;20.53;7.10;;;;;;;;;;739431;187;922624;-61
2023/05/25 11:21:54;;;;;;;15.00;9.03;;;;;;;;;;744971;187;818212;-60
2023/05/25 11:24:18;;;;;;;11.20;8.23;;;;;;;;;;743663;187;915833;-60
2023/05/25 11:26:50;;;;;;;17.67;9.50;;;;;;;;;;738727;187;918866;-60
2023/05/25 11:29:16;;;;;;;11.13;8.10;;;;;;;;;;745237;187;816603;-59
2023/05/25 11:31:42;;;;;;;17.57;7.57;;;;;;;;;;737562;187;1019898;-65
2023/05/25 11:34:08;;;;;;;13.40;8.07;;;;;;;;;;742301;187;894585;-65
2023/05/25 11:36:33;;;;;;;15.23;8.73;;;;;;;;;;739175;187;873089;-61
2023/05/25 11:39:00;;;;;;;10.87;6.67;;;;;;;;;;751411;183;918860;-60
2023/05/25 11:41:26;;;;;;;13.57;7.47;;;;;;;;;;740636;186;919937;-65
2023/05/25 11:43:52;;;;;;;11.07;6.70;;;;;;;;;;734920;186;918600;-61
2023/05/25 11:46:18;;;;;;;13.97;6.93;;;;;;;;;;746764;187;919353;-66
2023/05/25 11:48:45;;;;;;;9.20;6.97;;;;;;;;;;744224;186;816452;-66
2023/05/25 11:51:11;;;;;;;12.10;6.57;;;;;;;;;;741109;187;918574;-60
2023/05/25 11:53:41;;;;;;;9.47;6.03;;;;;;;;;;744001;187;919194;-65
2023/05/25 11:56:07;;;;;;;8.63;6.03;;;;;;;;;;747207;186;917777;-64
2023/05/25 11:58:32;;;;;;;6.70;4.27;;;;;;;;;;743175;186;815286;-65
2023/05/25 12:00:58;;;;;;;10.27;6.20;;;;;;;;;;738798;187;919604;-60
2023/05/25 12:03:27;;;;;;;10.70;7.00;;;;;;;;;;741984;188;919595;-65
2023/05/25 12:05:53;;;;;;;13.93;8.10;;;;;;;;;;733092;187;919322;-66
2023/05/25 12:08:19;;;;;;;10.38;6.55;;;;;;;;;;738524;187;919575;-61
2023/05/25 12:10:49;;;;;;;11.00;8.33;;;;;;;;;;745631;187;920407;-60
2023/05/25 12:13:14;;;;;;;11.60;7.37;;;;;;;;;;742570;186;919157;-60
2023/05/25 12:15:40;;;;;;;10.93;8.03;;;;;;;;;;743717;186;918488;-61
2023/05/25 12:18:06;;;;;;;11.77;6.53;;;;;;;;;;739024;187;920398;-65
2023/05/25 12:20:32;;;;;;;11.17;8.20;;;;;;;;;;743542;187;944301;-60
2023/05/25 12:22:57;;;;;;;12.50;7.80;;;;;;;;;;738854;187;919437;-60
2023/05/25 12:25:23;;;;;;;9.70;7.50;;;;;;;;;;743686;187;918877;-60
2023/05/25 12:27:50;;;;;;;9.77;7.30;;;;;;;;;;744957;187;919006;-61
2023/05/25 12:30:15;;;;;;;10.43;6.83;;;;;;;;;;740858;187;918841;-60
2023/05/25 12:32:47;;;;;;;7.67;4.37;;;;;;;;;;739877;187;920313;-60
2023/05/25 12:35:13;;;;;;;15.47;7.20;;;;;;;;;;734549;187;919687;-59
2023/05/25 12:37:39;;;;;;;12.00;5.80;;;;;;;;;;744509;187;920708;-66
2023/05/25 12:40:05;;;;;;;13.03;8.50;;;;;;;;;;738489;187;918838;-65
2023/05/25 12:42:33;;;;;;;15.70;8.65;;;;;;;;;;739304;188;918834;-65
2023/05/25 12:44:59;;;;;;;12.83;8.67;;;;;;;;;;742516;187;919795;-60
2023/05/25 12:47:23;;;;;;;16.30;6.87;;;;;;;;;;739401;187;939026;-64
2023/05/25 12:49:50;;;;;;;12.83;8.70;;;;;;;;;;739812;187;918490;-65
2023/05/25 12:52:21;;;;;;;10.73;8.60;;;;;;;;;;747885;185;916085;-60
2023/05/25 12:54:48;;;;;;;12.47;7.87;;;;;;;;;;740910;186;817796;-67
2023/05/25 12:57:13;;;;;;;9.90;6.57;;;;;;;;;;751461;183;941469;-66
2023/05/25 12:59:39;;;;;;;16.00;8.50;;;;;;;;;;739291;187;915232;-60
2023/05/25 13:02:05;;;;;;;8.03;5.97;;;;;;;;;;742641;187;919195;-66
2023/05/25 13:04:30;;;;;;;11.43;8.73;;;;;;;;;;738673;187;919354;-61
2023/05/25 13:06:56;;;;;;;8.90;5.30;;;;;;;;;;739068;187;920577;-69
2023/05/25 13:09:22;;;;;;;13.63;7.20;;;;;;;;;;745457;188;920043;-60
2023/05/25 13:11:48;;;;;;;11.00;6.80;;;;;;;;;;741326;187;818410;-68
2023/05/25 13:14:14;;;;;;;10.97;7.83;;;;;;;;;;739803;188;919597;-66
2023/05/25 13:16:40;;;;;;;9.70;8.20;;;;;;;;;;740575;187;778151;-67
2023/05/25 13:19:06;;;;;;;11.57;8.67;;;;;;;;;;745601;187;813498;-61
2023/05/25 13:21:31;;;;;;;15.53;9.07;;;;;;;;;;740333;187;932668;-66
2023/05/25 13:23:57;;;;;;;8.50;5.53;;;;;;;;;;742511;187;843776;-62
2023/05/25 13:26:24;;;;;;;14.90;9.47;;;;;;;;;;742009;187;917800;-65
2023/05/25 13:28:49;;;;;;;9.43;7.63;;;;;;;;;;742098;187;919600;-68
2023/05/25 13:31:15;;;;;;;10.20;7.87;;;;;;;;;;740447;188;919396;-67
2023/05/25 13:33:41;;;;;;;15.87;9.47;;;;;;;;;;741714;187;916902;-67
2023/05/25 13:36:07;;;;;;;9.77;7.10;;;;;;;;;;735086;188;1007139;-67
2023/05/25 13:38:32;;;;;;;11.07;7.77;;;;;;;;;;739769;188;914810;-61
2023/05/25 13:40:58;;;;;;;7.73;6.30;;;;;;;;;;737706;188;918762;-62
2023/05/25 13:43:24;;;;;;;14.47;9.17;;;;;;;;;;743522;186;921193;-68
2023/05/25 13:45:50;;;;;;;11.37;8.40;;;;;;;;;;735206;186;918524;-67
2023/05/25 13:48:16;;;;;;;9.40;8.03;;;;;;;;;;736667;188;920945;-61
2023/05/25 13:50:43;;;;;;;13.00;8.80;;;;;;;;;;742568;187;915628;-61
2023/05/25 13:53:08;;;;;;;12.67;8.50;;;;;;;;;;738328;188;921528;-61
2023/05/25 13:55:33;;;;;;;15.00;10.33;;;;;;;;;;737256;188;919908;-61
2023/05/25 13:57:59;;;;;;;13.13;9.30;;;;;;;;;;744939;188;847682;-61
2023/05/25 14:00:26;;;;;;;11.13;8.33;;;;;;;;;;740187;187;920189;-61
2023/05/25 14:02:51;;;;;;;16.05;10.15;;;;;;;;;;744576;184;915795;-69
2023/05/25 14:05:18;;;;;;;14.83;9.90;;;;;;;;;;745045;187;817200;-61